Rockford, IL

10:50 PM CST on November 26, 2014 (GMT -0600)
Greater Rockford | Change Station
CLOSE
Current Station
Airport
Location: Rockford,
Elevation: 741 ft
Nearby Weather Stations

Elev 741 ft 42.19 °N, 89.09 °W | Updated 36 minutes ago

Mostly Cloudy
Mostly Cloudy
21 °F
Feels Like 11 °F
N
9
Wind Variable Wind from North

Today
High -- | Low -- °F
--% Chance of Precip.
Yesterday
High -- | Low -- °F
Precip. -- in
7:00 AM 4:27 PM
Waxing Crescent, 26% visible
Pressure 30.23 in
Visibility 6.0 miles
Clouds Few 900 ft
Few 2800 ft
Overcast 25000 ft
Windchill 11 °F
Dew Point 16 °F
Humidity 81%
Rainfall 0.00 in
Snow Depth Not available.
UV 0 out of 12
Pollen .10 out of 12
Air Quality Not available.
Flu Activity Not available.
SPECI KRFD 270414Z 35008KT 6SM HZ FEW009 FEW028 OVC250 M06/M09 A3023 RMK AO2 T10611089

More Conditions Fewer Conditions

Pressure 30.23 in
Visibility 6.0 miles
Clouds Few 900 ft
Few 2800 ft
Overcast 25000 ft
Windchill 11 °F
Dew Point 16 °F
Humidity 81%
Rainfall 0.00 in
Snow Depth Not available.
UV 0 out of 12
Pollen .10 out of 12
Air Quality Not available.
Flu Activity Not available.
SPECI KRFD 270414Z 35008KT 6SM HZ FEW009 FEW028 OVC250 M06/M09 A3023 RMK AO2 T10611089

More Conditions Fewer Conditions

10-Day Weather Forecast

Almanac

Astronomy

Nov. 26, 2014 Rise Set
Actual Time
Civil Twilight
Nautical Twilight
Astronomical Twilight
Moon
Length of Visible Light
Length of Day
Tomorrow will be .
, % of the Moon is Illuminated

Today's Extremes

State Highs State Lows

Community

WunderPhotos

Upload Photos

1,773,959 photos uploaded!

WunderBlogs® & News

Nearby

Air Quality

  Air Quality AQ Index Pollutant
Not available.

Snow Depth

Station Depth Elevation

Earthquake Activity

City Distance Mag. Time & Date
Minimum magnitude displayed is 2.5.

Coastal Water Temperatures

Place Temperature

Nearby Weather Stations